createdAt,value
2022-09-12T00:01:11.000Z,189
2022-09-12T00:02:27.000Z,190
2022-09-12T00:03:43.000Z,194
2022-09-12T00:05:00.000Z,191
2022-09-12T00:06:16.000Z,198
2022-09-12T00:07:32.000Z,199
2022-09-12T00:08:48.000Z,193
2022-09-12T00:10:04.000Z,179
2022-09-12T00:11:21.000Z,174
2022-09-12T00:12:36.000Z,174
2022-09-12T00:13:52.000Z,176
2022-09-12T00:15:08.000Z,172
2022-09-12T00:16:25.000Z,175
2022-09-12T00:17:40.000Z,171
2022-09-12T00:18:56.000Z,164
2022-09-12T00:20:12.000Z,165
2022-09-12T00:21:29.000Z,164
2022-09-12T00:22:45.000Z,164
2022-09-12T00:24:01.000Z,164
2022-09-12T00:25:17.000Z,176
2022-09-12T00:26:34.000Z,175
2022-09-12T00:27:50.000Z,178
2022-09-12T00:29:06.000Z,174
2022-09-12T00:30:22.000Z,177
2022-09-12T00:31:39.000Z,178
2022-09-12T00:32:55.000Z,180
2022-09-12T00:34:10.000Z,180
2022-09-12T00:35:26.000Z,180
2022-09-12T00:36:42.000Z,178
2022-09-12T00:37:59.000Z,178
2022-09-12T00:39:15.000Z,179
2022-09-12T00:40:31.000Z,177
2022-09-12T00:41:47.000Z,176
2022-09-12T00:43:04.000Z,172
2022-09-12T00:44:20.000Z,172
2022-09-12T00:45:36.000Z,177
2022-09-12T00:46:52.000Z,172
2022-09-12T00:48:09.000Z,172
2022-09-12T00:49:25.000Z,172
2022-09-12T00:50:40.000Z,181
2022-09-12T00:51:56.000Z,183
2022-09-12T00:53:13.000Z,185
2022-09-12T00:54:29.000Z,181
2022-09-12T00:55:45.000Z,182
2022-09-12T00:57:01.000Z,188
2022-09-12T00:58:17.000Z,198
2022-09-12T00:59:34.000Z,198
2022-09-12T01:00:50.000Z,197
2022-09-12T01:02:06.000Z,195
2022-09-12T01:03:22.000Z,201
2022-09-12T01:04:39.000Z,206
2022-09-12T01:05:55.000Z,213
2022-09-12T01:07:10.000Z,213
2022-09-12T01:08:26.000Z,213
2022-09-12T01:09:43.000Z,212
2022-09-12T01:10:59.000Z,213
2022-09-12T01:12:15.000Z,214
2022-09-12T01:13:31.000Z,213
2022-09-12T01:14:48.000Z,213
2022-09-12T01:16:04.000Z,211
2022-09-12T01:17:20.000Z,213
2022-09-12T01:18:36.000Z,213
2022-09-12T01:19:52.000Z,216
2022-09-12T01:21:09.000Z,220
2022-09-12T01:22:25.000Z,220
2022-09-12T01:23:41.000Z,220
2022-09-12T01:24:56.000Z,220
2022-09-12T01:26:13.000Z,221
2022-09-12T01:27:29.000Z,221
2022-09-12T01:28:45.000Z,219
2022-09-12T01:30:01.000Z,221
2022-09-12T01:31:18.000Z,221
2022-09-12T01:32:34.000Z,223
2022-09-12T01:33:50.000Z,226
2022-09-12T01:35:06.000Z,217
2022-09-12T01:36:22.000Z,220
2022-09-12T01:37:39.000Z,221
2022-09-12T01:38:55.000Z,217
2022-09-12T01:40:11.000Z,222
2022-09-12T01:41:26.000Z,222
2022-09-12T01:42:43.000Z,224
2022-09-12T01:43:59.000Z,224
2022-09-12T01:45:15.000Z,225
2022-09-12T01:46:31.000Z,226
2022-09-12T01:47:48.000Z,221
2022-09-12T01:49:04.000Z,222
2022-09-12T01:50:20.000Z,223
2022-09-12T01:51:36.000Z,221
2022-09-12T01:52:53.000Z,223
2022-09-12T01:54:09.000Z,223
2022-09-12T01:55:25.000Z,223
2022-09-12T01:56:41.000Z,224
2022-09-12T01:57:56.000Z,220
2022-09-12T01:59:13.000Z,222
2022-09-12T02:00:29.000Z,219
2022-09-12T02:01:45.000Z,222
2022-09-12T02:03:01.000Z,221
2022-09-12T02:04:18.000Z,215
2022-09-12T02:05:34.000Z,219
2022-09-12T02:06:50.000Z,220
2022-09-12T02:08:06.000Z,216
2022-09-12T02:09:23.000Z,220
2022-09-12T02:10:39.000Z,220
2022-09-12T02:11:55.000Z,218
2022-09-12T02:13:11.000Z,218
2022-09-12T02:14:27.000Z,216
2022-09-12T02:15:43.000Z,216
2022-09-12T02:16:59.000Z,208
2022-09-12T02:18:15.000Z,207
2022-09-12T02:19:31.000Z,207
2022-09-12T02:20:48.000Z,207
2022-09-12T02:22:04.000Z,204
2022-09-12T02:23:20.000Z,204
2022-09-12T02:24:36.000Z,206
2022-09-12T02:25:53.000Z,206
2022-09-12T02:27:09.000Z,207
2022-09-12T02:28:25.000Z,207
2022-09-12T02:29:41.000Z,205
2022-09-12T02:30:57.000Z,203
2022-09-12T02:32:13.000Z,199
2022-09-12T02:33:29.000Z,200
2022-09-12T02:34:45.000Z,198
2022-09-12T02:36:02.000Z,183
2022-09-12T02:37:18.000Z,182
2022-09-12T02:38:34.000Z,187
2022-09-12T02:39:50.000Z,206
2022-09-12T02:41:06.000Z,205
2022-09-12T02:42:23.000Z,206
2022-09-12T02:43:39.000Z,204
2022-09-12T02:44:55.000Z,203
2022-09-12T02:46:11.000Z,201
2022-09-12T02:47:27.000Z,201
2022-09-12T02:48:43.000Z,203
2022-09-12T02:49:59.000Z,203
2022-09-12T02:51:15.000Z,202
2022-09-12T02:52:32.000Z,200
2022-09-12T02:53:48.000Z,198
2022-09-12T02:55:04.000Z,198
2022-09-12T02:56:20.000Z,196
2022-09-12T02:57:37.000Z,196
2022-09-12T02:58:53.000Z,195
2022-09-12T03:00:09.000Z,194
2022-09-12T03:01:25.000Z,194
2022-09-12T03:02:41.000Z,189
2022-09-12T03:03:57.000Z,190
2022-09-12T03:05:13.000Z,191
2022-09-12T03:06:29.000Z,191
2022-09-12T03:07:45.000Z,191
2022-09-12T03:09:02.000Z,197
2022-09-12T03:10:18.000Z,206
2022-09-12T03:11:34.000Z,204
2022-09-12T03:12:50.000Z,202
2022-09-12T03:14:07.000Z,192
2022-09-12T03:15:23.000Z,191
2022-09-12T03:16:39.000Z,186
2022-09-12T03:17:55.000Z,190
2022-09-12T03:19:12.000Z,188
2022-09-12T03:20:27.000Z,188
2022-09-12T03:21:43.000Z,185
2022-09-12T03:22:59.000Z,183
2022-09-12T03:24:15.000Z,172
2022-09-12T03:25:32.000Z,145
2022-09-12T03:26:48.000Z,146
2022-09-12T03:28:04.000Z,148
2022-09-12T03:29:20.000Z,147
2022-09-12T03:30:37.000Z,144
2022-09-12T03:31:53.000Z,145
2022-09-12T03:34:25.000Z,142
2022-09-12T03:35:42.000Z,142
2022-09-12T03:36:57.000Z,142
2022-09-12T03:38:13.000Z,145
2022-09-12T03:39:29.000Z,144
2022-09-12T03:40:46.000Z,139
2022-09-12T03:42:02.000Z,141
2022-09-12T03:43:18.000Z,139
2022-09-12T03:44:34.000Z,137
2022-09-12T03:45:50.000Z,135
2022-09-12T03:47:07.000Z,135
2022-09-12T03:48:23.000Z,135
2022-09-12T03:49:39.000Z,131
2022-09-12T03:50:55.000Z,136
2022-09-12T03:52:12.000Z,131
2022-09-12T03:53:27.000Z,123
2022-09-12T03:54:43.000Z,118
2022-09-12T03:55:59.000Z,113
2022-09-12T03:57:16.000Z,110
2022-09-12T03:58:32.000Z,111
2022-09-12T03:59:48.000Z,108
2022-09-12T04:01:04.000Z,108
2022-09-12T04:02:21.000Z,108
2022-09-12T04:03:37.000Z,106
2022-09-12T04:04:53.000Z,105
2022-09-12T04:06:09.000Z,106
2022-09-12T04:07:25.000Z,104
2022-09-12T04:08:42.000Z,106
2022-09-12T04:09:57.000Z,108
2022-09-12T04:11:13.000Z,105
2022-09-12T04:12:29.000Z,108
2022-09-12T04:13:46.000Z,108
2022-09-12T04:15:02.000Z,104
2022-09-12T04:16:18.000Z,102
2022-09-12T04:17:34.000Z,100
2022-09-12T04:18:51.000Z,97
2022-09-12T04:20:07.000Z,99
2022-09-12T04:21:23.000Z,101
2022-09-12T04:22:39.000Z,101
2022-09-12T04:23:55.000Z,99
2022-09-12T04:25:12.000Z,102
2022-09-12T04:26:27.000Z,101
2022-09-12T04:27:43.000Z,101
2022-09-12T04:28:59.000Z,104
2022-09-12T04:30:15.000Z,105
2022-09-12T04:31:30.000Z,105
2022-09-12T04:32:45.000Z,108
2022-09-12T04:34:01.000Z,110
2022-09-12T04:35:18.000Z,112
2022-09-12T04:36:34.000Z,114
2022-09-12T04:37:50.000Z,118
2022-09-12T04:39:06.000Z,98
2022-09-12T04:40:23.000Z,9
2022-09-12T04:41:39.000Z,11
2022-09-12T04:42:55.000Z,17
2022-09-12T04:44:11.000Z,21
2022-09-12T04:45:28.000Z,24
2022-09-12T04:46:44.000Z,30
2022-09-12T04:48:00.000Z,36
2022-09-12T04:49:15.000Z,47
2022-09-12T04:50:31.000Z,56
2022-09-12T04:51:46.000Z,73
2022-09-12T04:53:02.000Z,94
2022-09-12T04:54:18.000Z,113
2022-09-12T04:55:34.000Z,142
2022-09-12T04:56:51.000Z,167
2022-09-12T04:58:07.000Z,187
2022-09-12T04:59:23.000Z,214
2022-09-12T05:00:39.000Z,235
2022-09-12T05:01:56.000Z,258
2022-09-12T05:03:12.000Z,295
2022-09-12T05:04:28.000Z,329
2022-09-12T05:05:44.000Z,360
2022-09-12T05:07:01.000Z,402
2022-09-12T05:08:16.000Z,442
2022-09-12T05:09:32.000Z,480
2022-09-12T05:10:48.000Z,524
2022-09-12T05:12:05.000Z,576
2022-09-12T05:13:21.000Z,632
2022-09-12T05:14:37.000Z,693
2022-09-12T05:15:53.000Z,747
2022-09-12T05:17:09.000Z,804
2022-09-12T05:18:26.000Z,859
2022-09-12T05:19:42.000Z,933
2022-09-12T05:20:58.000Z,994
2022-09-12T05:22:14.000Z,1049
2022-09-12T05:23:31.000Z,1118
2022-09-12T05:24:46.000Z,1183
2022-09-12T05:26:02.000Z,1239
2022-09-12T05:27:18.000Z,1290
2022-09-12T05:28:35.000Z,1353
2022-09-12T05:29:51.000Z,1404
2022-09-12T05:31:07.000Z,1442
2022-09-12T05:32:23.000Z,1481
2022-09-12T05:33:40.000Z,1528
2022-09-12T05:34:56.000Z,1580
2022-09-12T05:36:12.000Z,1615
2022-09-12T05:37:28.000Z,1661
2022-09-12T05:38:44.000Z,1697
2022-09-12T05:40:01.000Z,1732
2022-09-12T05:41:16.000Z,1774
2022-09-12T05:42:32.000Z,1819
2022-09-12T05:43:47.000Z,1869
2022-09-12T05:45:03.000Z,1927
2022-09-12T05:46:19.000Z,1991
2022-09-12T05:47:35.000Z,2068
2022-09-12T05:48:51.000Z,2151
2022-09-12T05:50:08.000Z,2226
2022-09-12T05:51:23.000Z,2283
2022-09-12T05:52:38.000Z,2321
2022-09-12T05:53:54.000Z,2347
2022-09-12T05:55:11.000Z,2377
2022-09-12T05:56:27.000Z,2434
2022-09-12T05:57:43.000Z,2515
2022-09-12T05:58:59.000Z,2605
2022-09-12T06:00:16.000Z,2699
2022-09-12T06:01:32.000Z,2814
2022-09-12T06:02:48.000Z,2937
2022-09-12T06:04:04.000Z,3043
2022-09-12T06:05:20.000Z,3131
2022-09-12T06:06:37.000Z,3201
2022-09-12T06:07:53.000Z,3278
2022-09-12T06:09:09.000Z,3353
2022-09-12T06:10:25.000Z,3415
2022-09-12T06:11:41.000Z,3462
2022-09-12T06:12:57.000Z,3512
2022-09-12T06:14:13.000Z,3574
2022-09-12T06:15:29.000Z,3625
2022-09-12T06:16:46.000Z,3674
2022-09-12T06:18:02.000Z,3747
2022-09-12T06:19:18.000Z,3825
2022-09-12T06:20:34.000Z,3919
2022-09-12T06:21:51.000Z,4008
2022-09-12T06:23:07.000Z,4042
2022-09-12T06:24:23.000Z,4102
2022-09-12T06:25:39.000Z,4167
2022-09-12T06:26:55.000Z,4275
2022-09-12T06:28:11.000Z,4333
2022-09-12T06:29:27.000Z,4395
2022-09-12T06:30:43.000Z,4415
2022-09-12T06:31:59.000Z,4452
2022-09-12T06:33:16.000Z,4406
2022-09-12T06:34:32.000Z,4553
2022-09-12T06:35:48.000Z,4594
2022-09-12T06:37:04.000Z,4695
2022-09-12T06:38:21.000Z,4845
2022-09-12T06:39:37.000Z,4907
2022-09-12T06:40:53.000Z,4913
2022-09-12T06:42:09.000Z,5015
2022-09-12T06:43:26.000Z,5047
2022-09-12T06:44:41.000Z,5160
2022-09-12T06:45:57.000Z,5184
2022-09-12T06:47:13.000Z,5333
2022-09-12T06:48:29.000Z,5423
2022-09-12T06:49:46.000Z,5504
2022-09-12T06:51:02.000Z,5581
2022-09-12T06:52:18.000Z,5632
2022-09-12T06:53:34.000Z,5735
2022-09-12T06:54:51.000Z,5701
2022-09-12T06:56:07.000Z,5777
2022-09-12T06:57:23.000Z,5822
2022-09-12T06:58:39.000Z,5749
2022-09-12T06:59:56.000Z,5812
2022-09-12T07:01:11.000Z,5843
2022-09-12T07:02:27.000Z,5878
2022-09-12T07:03:43.000Z,5970
2022-09-12T07:05:00.000Z,6041
2022-09-12T07:06:16.000Z,6094
2022-09-12T07:07:32.000Z,6225
2022-09-12T07:08:48.000Z,6299
2022-09-12T07:10:04.000Z,6383
2022-09-12T07:11:21.000Z,6459
2022-09-12T07:12:37.000Z,6513
2022-09-12T07:13:53.000Z,6589
2022-09-12T07:15:09.000Z,6683
2022-09-12T07:16:26.000Z,6731
2022-09-12T07:17:41.000Z,6766
2022-09-12T07:18:57.000Z,6781
2022-09-12T07:20:13.000Z,6820
2022-09-12T07:21:30.000Z,6880
2022-09-12T07:22:46.000Z,6880
2022-09-12T07:24:02.000Z,6899
2022-09-12T07:25:18.000Z,6947
2022-09-12T07:26:35.000Z,6939
2022-09-12T07:27:51.000Z,6936
2022-09-12T07:29:07.000Z,6973
2022-09-12T07:30:23.000Z,6967
2022-09-12T07:31:39.000Z,7008
2022-09-12T07:32:56.000Z,7054
2022-09-12T07:34:11.000Z,7115
2022-09-12T07:35:27.000Z,7221
2022-09-12T07:36:43.000Z,7280
2022-09-12T07:38:00.000Z,7370
2022-09-12T07:39:16.000Z,7451
2022-09-12T07:40:32.000Z,7486
2022-09-12T07:41:48.000Z,7542
2022-09-12T07:43:05.000Z,7578
2022-09-12T07:44:21.000Z,7617
2022-09-12T07:45:37.000Z,7633
2022-09-12T07:46:53.000Z,7682
2022-09-12T07:48:10.000Z,7702
2022-09-12T07:49:26.000Z,7733
2022-09-12T07:50:41.000Z,7774
2022-09-12T07:51:57.000Z,7835
2022-09-12T07:53:13.000Z,7898
2022-09-12T07:54:30.000Z,7958
2022-09-12T07:55:46.000Z,8066
2022-09-12T07:57:02.000Z,8136
2022-09-12T07:58:18.000Z,8203
2022-09-12T07:59:35.000Z,8261
2022-09-12T08:00:51.000Z,8303
2022-09-12T08:02:07.000Z,8313
2022-09-12T08:03:23.000Z,8341
2022-09-12T08:04:40.000Z,8381
2022-09-12T08:05:56.000Z,8461
2022-09-12T08:07:11.000Z,8524
2022-09-12T08:08:27.000Z,8634
2022-09-12T08:09:44.000Z,8768
2022-09-12T08:11:00.000Z,8884
2022-09-12T08:12:16.000Z,8995
2022-09-12T08:13:32.000Z,9095
2022-09-12T08:14:48.000Z,9186
2022-09-12T08:16:05.000Z,9269
2022-09-12T08:17:21.000Z,9352
2022-09-12T08:18:37.000Z,9378
2022-09-12T08:19:53.000Z,9384
2022-09-12T08:21:10.000Z,9405
2022-09-12T08:22:26.000Z,9390
2022-09-12T08:23:41.000Z,9379
2022-09-12T08:24:57.000Z,9371
2022-09-12T08:26:14.000Z,9346
2022-09-12T08:27:30.000Z,9358
2022-09-12T08:28:46.000Z,9355
2022-09-12T08:30:02.000Z,9381
2022-09-12T08:31:19.000Z,9429
2022-09-12T08:32:35.000Z,9499
2022-09-12T08:33:51.000Z,9605
2022-09-12T08:35:07.000Z,9713
2022-09-12T08:36:23.000Z,9825
2022-09-12T08:37:40.000Z,9929
2022-09-12T08:38:56.000Z,10008
2022-09-12T08:40:11.000Z,10081
2022-09-12T08:41:27.000Z,10138
2022-09-12T08:42:44.000Z,10206
2022-09-12T08:44:00.000Z,10290
2022-09-12T08:45:16.000Z,10309
2022-09-12T08:46:32.000Z,10286
2022-09-12T08:47:49.000Z,10289
2022-09-12T08:49:05.000Z,10259
2022-09-12T08:50:20.000Z,10203
2022-09-12T08:51:36.000Z,10228
2022-09-12T08:52:53.000Z,10314
2022-09-12T08:54:09.000Z,10456
2022-09-12T08:55:25.000Z,10589
2022-09-12T08:56:41.000Z,10703
2022-09-12T08:57:57.000Z,10838
2022-09-12T08:59:14.000Z,10979
2022-09-12T09:00:30.000Z,11155
2022-09-12T09:01:46.000Z,11356
2022-09-12T09:03:02.000Z,11523
2022-09-12T09:04:19.000Z,11531
2022-09-12T09:05:35.000Z,11492
2022-09-12T09:06:50.000Z,11565
2022-09-12T09:08:06.000Z,11609
2022-09-12T09:09:23.000Z,11645
2022-09-12T09:10:39.000Z,11461
2022-09-12T09:11:55.000Z,11218
2022-09-12T09:13:11.000Z,11044
2022-09-12T09:14:27.000Z,11067
2022-09-12T09:15:44.000Z,11161
2022-09-12T09:17:00.000Z,10708
2022-09-12T09:18:16.000Z,10278
2022-09-12T09:19:32.000Z,9731
2022-09-12T09:20:49.000Z,9313
2022-09-12T09:22:05.000Z,9093
2022-09-12T09:23:20.000Z,9124
2022-09-12T09:24:36.000Z,9047
2022-09-12T09:25:53.000Z,8873
2022-09-12T09:27:09.000Z,8690
2022-09-12T09:28:25.000Z,8483
2022-09-12T09:29:41.000Z,8309
2022-09-12T09:30:58.000Z,8147
2022-09-12T09:32:14.000Z,8001
2022-09-12T09:33:30.000Z,7912
2022-09-12T09:34:46.000Z,7933
2022-09-12T09:36:02.000Z,7873
2022-09-12T09:37:19.000Z,8306
2022-09-12T09:38:35.000Z,8225
2022-09-12T09:39:50.000Z,8462
2022-09-12T09:41:06.000Z,8821
2022-09-12T09:42:23.000Z,8886
2022-09-12T09:43:39.000Z,8966
2022-09-12T09:44:55.000Z,9294
2022-09-12T09:46:11.000Z,8919
2022-09-12T09:47:28.000Z,9035
2022-09-12T09:48:44.000Z,9908
2022-09-12T09:50:00.000Z,10355
2022-09-12T09:51:16.000Z,10676
2022-09-12T09:52:33.000Z,10860
2022-09-12T09:53:49.000Z,10791
2022-09-12T09:55:05.000Z,10809
2022-09-12T09:56:20.000Z,10886
2022-09-12T09:57:36.000Z,10032
2022-09-12T09:58:53.000Z,9959
2022-09-12T10:00:09.000Z,9969
2022-09-12T10:01:25.000Z,9730
2022-09-12T10:02:41.000Z,9764
2022-09-12T10:03:58.000Z,9634
2022-09-12T10:05:14.000Z,9423
2022-09-12T10:06:30.000Z,9757
2022-09-12T10:07:46.000Z,9992
2022-09-12T10:09:03.000Z,10186
2022-09-12T10:10:19.000Z,9852
2022-09-12T10:11:35.000Z,9308
2022-09-12T10:12:50.000Z,8749
2022-09-12T10:14:07.000Z,8268
2022-09-12T10:15:23.000Z,7881
2022-09-12T10:16:39.000Z,7475
2022-09-12T10:17:55.000Z,7024
2022-09-12T10:19:11.000Z,6744
2022-09-12T10:20:28.000Z,6709
2022-09-12T10:21:44.000Z,6739
2022-09-12T10:23:00.000Z,6544
2022-09-12T10:24:16.000Z,6283
2022-09-12T10:25:33.000Z,6200
2022-09-12T10:26:49.000Z,6027
2022-09-12T10:28:05.000Z,5777
2022-09-12T10:29:20.000Z,5519
2022-09-12T10:30:37.000Z,5342
2022-09-12T10:31:53.000Z,5236
2022-09-12T10:33:09.000Z,5170
2022-09-12T10:34:25.000Z,5081
2022-09-12T10:35:42.000Z,4936
2022-09-12T10:36:58.000Z,4869
2022-09-12T10:38:14.000Z,4858
2022-09-12T10:39:30.000Z,4933
2022-09-12T10:40:46.000Z,5109
2022-09-12T10:42:03.000Z,5153
2022-09-12T10:43:19.000Z,5187
2022-09-12T10:44:35.000Z,5232
2022-09-12T10:45:50.000Z,5269
2022-09-12T10:47:07.000Z,5285
2022-09-12T10:48:23.000Z,5266
2022-09-12T10:49:39.000Z,5219
2022-09-12T10:50:55.000Z,5223
2022-09-12T10:52:12.000Z,5263
2022-09-12T10:53:28.000Z,5276
2022-09-12T10:54:44.000Z,5252
2022-09-12T10:56:00.000Z,5115
2022-09-12T10:57:16.000Z,4989
2022-09-12T10:58:33.000Z,4929
2022-09-12T10:59:49.000Z,4921
2022-09-12T11:01:05.000Z,4887
2022-09-12T11:02:21.000Z,4801
2022-09-12T11:03:37.000Z,4674
2022-09-12T11:04:53.000Z,4564
2022-09-12T11:06:09.000Z,4550
2022-09-12T11:07:25.000Z,4561
2022-09-12T11:08:42.000Z,4543
2022-09-12T11:09:58.000Z,4525
2022-09-12T11:11:14.000Z,4493
2022-09-12T11:12:30.000Z,4500
2022-09-12T11:13:47.000Z,4516
2022-09-12T11:15:03.000Z,4487
2022-09-12T11:16:19.000Z,4437
2022-09-12T11:17:35.000Z,4516
2022-09-12T11:18:51.000Z,4566
2022-09-12T11:20:07.000Z,4557
2022-09-12T11:21:23.000Z,4812
2022-09-12T11:22:39.000Z,4926
2022-09-12T11:23:55.000Z,4868
2022-09-12T11:25:12.000Z,4648
2022-09-12T11:26:28.000Z,4483
2022-09-12T11:27:44.000Z,4549
2022-09-12T11:29:00.000Z,4595
2022-09-12T11:30:17.000Z,4593
2022-09-12T11:31:33.000Z,4525
2022-09-12T11:32:49.000Z,4448
2022-09-12T11:34:05.000Z,4497
2022-09-12T11:35:22.000Z,4590
2022-09-12T11:36:37.000Z,4635
2022-09-12T11:37:53.000Z,4723
2022-09-12T11:39:09.000Z,4823
2022-09-12T11:40:25.000Z,4732
2022-09-12T11:41:42.000Z,4626
2022-09-12T11:42:58.000Z,4713
2022-09-12T11:44:14.000Z,4826
2022-09-12T11:45:30.000Z,4885
2022-09-12T11:46:47.000Z,4921
2022-09-12T11:48:03.000Z,4932
2022-09-12T11:49:19.000Z,4902
2022-09-12T11:50:35.000Z,4848
2022-09-12T11:51:52.000Z,4837
2022-09-12T11:53:07.000Z,4774
2022-09-12T11:54:23.000Z,4714
2022-09-12T11:55:39.000Z,4798
2022-09-12T11:56:56.000Z,4954
2022-09-12T11:58:12.000Z,4998
2022-09-12T11:59:28.000Z,5130
2022-09-12T12:00:44.000Z,5240
2022-09-12T12:02:00.000Z,5266
2022-09-12T12:03:17.000Z,5324
2022-09-12T12:04:33.000Z,5401
2022-09-12T12:05:49.000Z,5677
2022-09-12T12:07:05.000Z,5967
2022-09-12T12:08:22.000Z,5791
2022-09-12T12:09:37.000Z,5449
2022-09-12T12:10:53.000Z,5274
2022-09-12T12:12:09.000Z,5275
2022-09-12T12:13:26.000Z,5398
2022-09-12T12:14:42.000Z,5558
2022-09-12T12:15:58.000Z,5709
2022-09-12T12:17:14.000Z,5808
2022-09-12T12:18:31.000Z,5874
2022-09-12T12:19:47.000Z,5945
2022-09-12T12:21:03.000Z,5954
2022-09-12T12:22:19.000Z,5755
2022-09-12T12:23:35.000Z,5533
2022-09-12T12:24:52.000Z,5652
2022-09-12T12:26:07.000Z,6218
2022-09-12T12:27:23.000Z,6903
2022-09-12T12:28:39.000Z,7378
2022-09-12T12:29:56.000Z,7336
2022-09-12T12:31:12.000Z,7093
2022-09-12T12:32:28.000Z,7210
2022-09-12T12:33:44.000Z,7519
2022-09-12T12:35:01.000Z,7801
2022-09-12T12:36:17.000Z,8044
2022-09-12T12:37:33.000Z,8079
2022-09-12T12:38:49.000Z,8025
2022-09-12T12:40:06.000Z,8219
2022-09-12T12:41:22.000Z,8177
2022-09-12T12:42:37.000Z,7895
2022-09-12T12:43:53.000Z,7710
2022-09-12T12:45:09.000Z,7656
2022-09-12T12:46:26.000Z,7779
2022-09-12T12:47:42.000Z,7905
2022-09-12T12:48:58.659Z,8071
2022-09-12T12:50:14.000Z,8382
2022-09-12T12:51:31.000Z,8641
2022-09-12T12:52:47.000Z,8654
2022-09-12T12:54:03.000Z,9137
2022-09-12T12:55:19.000Z,8863
2022-09-12T12:56:36.000Z,9318
2022-09-12T12:57:52.000Z,10021
2022-09-12T12:59:07.000Z,11010
2022-09-12T13:00:23.000Z,11826
2022-09-12T13:01:40.000Z,13214
2022-09-12T13:02:56.000Z,13057
2022-09-12T13:04:12.000Z,13287
2022-09-12T13:05:27.000Z,13282
2022-09-12T13:06:43.000Z,13346
2022-09-12T13:08:00.000Z,13504
2022-09-12T13:09:16.000Z,13853
2022-09-12T13:10:32.000Z,14266
2022-09-12T13:11:48.000Z,13562
2022-09-12T13:13:05.000Z,13251
2022-09-12T13:14:21.000Z,13947
2022-09-12T13:15:37.000Z,15082
2022-09-12T13:16:53.000Z,15472
2022-09-12T13:18:10.000Z,15264
2022-09-12T13:19:26.000Z,14739
2022-09-12T13:20:42.000Z,13999
2022-09-12T13:21:58.000Z,13285
2022-09-12T13:23:14.000Z,12608
2022-09-12T13:24:30.000Z,11644
2022-09-12T13:25:46.000Z,10654
2022-09-12T13:27:02.000Z,11236
2022-09-12T13:28:18.000Z,12324
2022-09-12T13:29:35.000Z,12091
2022-09-12T13:30:51.000Z,11838
2022-09-12T13:32:07.000Z,11475
2022-09-12T13:33:23.000Z,11061
2022-09-12T13:34:40.000Z,10894
2022-09-12T13:35:56.000Z,11350
2022-09-12T13:37:12.000Z,11555
2022-09-12T13:38:28.000Z,11647
2022-09-12T13:39:44.000Z,11547
2022-09-12T13:41:00.000Z,10055
2022-09-12T13:42:16.000Z,8884
2022-09-12T13:43:32.000Z,20051
2022-09-12T13:44:49.000Z,22723
2022-09-12T13:46:05.000Z,17415
2022-09-12T13:47:21.000Z,19265
2022-09-12T13:48:37.000Z,15624
2022-09-12T13:49:53.000Z,17146
2022-09-12T13:51:10.000Z,14387
2022-09-12T13:52:26.000Z,7189
2022-09-12T13:53:42.000Z,18451
2022-09-12T13:54:58.000Z,13436
2022-09-12T13:56:14.000Z,11106
2022-09-12T13:57:30.000Z,9316
2022-09-12T13:58:46.000Z,9734
2022-09-12T14:00:02.000Z,3702
2022-09-12T14:01:19.000Z,19991
2022-09-12T14:02:35.000Z,20337
2022-09-12T14:03:51.000Z,21050
2022-09-12T14:05:07.000Z,19337
2022-09-12T14:06:24.000Z,16662
2022-09-12T14:07:40.000Z,19213
2022-09-12T14:08:56.000Z,13928
2022-09-12T14:10:12.000Z,15179
2022-09-12T14:11:28.000Z,18670
2022-09-12T14:12:44.000Z,18479
2022-09-12T14:14:00.000Z,21610
2022-09-12T14:15:16.000Z,23388
2022-09-12T14:16:32.000Z,22545
2022-09-12T14:17:49.000Z,19167
2022-09-12T14:19:05.000Z,14929
2022-09-12T14:20:21.000Z,10245
2022-09-12T14:21:37.000Z,17838
2022-09-12T14:22:54.000Z,16537
2022-09-12T14:24:10.000Z,11857
2022-09-12T14:25:26.000Z,7717
2022-09-12T14:26:42.000Z,12355
2022-09-12T14:27:59.000Z,16103
2022-09-12T14:29:14.000Z,13818
2022-09-12T14:30:30.000Z,15888
2022-09-12T14:31:46.000Z,18934
2022-09-12T14:33:02.000Z,16906
2022-09-12T14:34:19.000Z,11364
2022-09-12T14:35:35.000Z,10329
2022-09-12T14:36:51.000Z,11124
2022-09-12T14:38:07.000Z,10703
2022-09-12T14:39:24.000Z,10087
2022-09-12T14:40:40.000Z,10594
2022-09-12T14:41:56.000Z,10878
2022-09-12T14:43:12.000Z,10744
2022-09-12T14:44:29.000Z,11480
2022-09-12T14:45:45.000Z,12462
2022-09-12T14:47:01.000Z,14528
2022-09-12T14:48:17.000Z,14798
2022-09-12T14:49:33.000Z,14888
2022-09-12T14:50:49.000Z,15824
2022-09-12T14:52:05.000Z,15253
2022-09-12T14:53:21.000Z,13377
2022-09-12T14:54:37.000Z,11456
2022-09-12T14:55:54.000Z,11315
2022-09-12T14:57:10.000Z,11632
2022-09-12T14:58:26.000Z,11504
2022-09-12T14:59:42.000Z,11687
2022-09-12T15:00:59.000Z,11926
2022-09-12T15:02:15.000Z,12228
2022-09-12T15:03:31.000Z,11657
2022-09-12T15:04:47.000Z,11553
2022-09-12T15:06:03.000Z,11652
2022-09-12T15:07:19.000Z,12821
2022-09-12T15:08:35.000Z,12652
2022-09-12T15:09:51.000Z,12756
2022-09-12T15:11:07.000Z,12390
2022-09-12T15:12:24.000Z,12082
2022-09-12T15:13:40.000Z,12286
2022-09-12T15:14:56.000Z,12660
2022-09-12T15:16:12.000Z,12153
2022-09-12T15:17:29.000Z,11607
2022-09-12T15:18:45.000Z,11070
2022-09-12T15:20:01.000Z,10859
2022-09-12T15:21:17.000Z,10877
2022-09-12T15:22:33.000Z,11433
2022-09-12T15:23:49.000Z,11650
2022-09-12T15:25:05.000Z,12502
2022-09-12T15:26:21.000Z,13117
2022-09-12T15:27:38.000Z,12001
2022-09-12T15:28:54.000Z,10609
2022-09-12T15:30:10.000Z,10443
2022-09-12T15:31:26.000Z,10274
2022-09-12T15:32:42.000Z,10733
2022-09-12T15:33:59.000Z,10325
2022-09-12T15:35:15.000Z,11019
2022-09-12T15:36:31.000Z,10307
2022-09-12T15:37:47.000Z,10523
2022-09-12T15:39:04.000Z,10129
2022-09-12T15:40:19.000Z,10577
2022-09-12T15:41:35.000Z,11156
2022-09-12T15:42:51.000Z,11095
2022-09-12T15:44:08.000Z,11790
2022-09-12T15:45:24.000Z,10857
2022-09-12T15:46:40.000Z,10441
2022-09-12T15:47:56.000Z,10205
2022-09-12T15:49:13.000Z,10344
2022-09-12T15:50:29.000Z,9481
2022-09-12T15:51:45.000Z,8828
2022-09-12T15:53:01.000Z,8502
2022-09-12T15:54:17.000Z,8532
2022-09-12T15:55:34.000Z,8462
2022-09-12T15:56:49.000Z,8174
2022-09-12T15:58:05.000Z,8227
2022-09-12T15:59:21.000Z,8041
2022-09-12T16:00:38.000Z,8090
2022-09-12T16:01:54.000Z,7804
2022-09-12T16:03:10.000Z,8007
2022-09-12T16:04:26.000Z,7970
2022-09-12T16:05:43.000Z,7904
2022-09-12T16:06:59.000Z,7447
2022-09-12T16:08:15.000Z,6986
2022-09-12T16:09:31.000Z,7368
2022-09-12T16:10:48.000Z,7296
2022-09-12T16:12:04.000Z,6900
2022-09-12T16:13:19.000Z,6990
2022-09-12T16:14:35.000Z,7708
2022-09-12T16:15:51.000Z,7428
2022-09-12T16:17:08.000Z,7310
2022-09-12T16:18:24.000Z,7100
2022-09-12T16:19:40.000Z,6488
2022-09-12T16:20:56.000Z,6301
2022-09-12T16:22:13.000Z,7071
2022-09-12T16:23:29.000Z,7444
2022-09-12T16:24:45.000Z,7225
2022-09-12T16:26:01.000Z,6239
2022-09-12T16:27:18.000Z,8626
2022-09-12T16:28:34.000Z,7781
2022-09-12T16:29:49.000Z,6630
2022-09-12T16:31:05.000Z,7564
2022-09-12T16:32:22.000Z,8622
2022-09-12T16:33:38.000Z,8599
2022-09-12T16:34:54.000Z,6731
2022-09-12T16:36:10.000Z,6159
2022-09-12T16:37:26.000Z,7239
2022-09-12T16:38:43.000Z,7067
2022-09-12T16:39:59.000Z,6969
2022-09-12T16:41:15.000Z,7647
2022-09-12T16:42:31.000Z,6859
2022-09-12T16:43:48.000Z,6878
2022-09-12T16:45:04.000Z,6135
2022-09-12T16:46:19.000Z,5837
2022-09-12T16:47:35.000Z,6106
2022-09-12T16:48:52.000Z,5891
2022-09-12T16:50:08.000Z,5881
2022-09-12T16:51:24.000Z,6039
2022-09-12T16:52:40.000Z,6403
2022-09-12T16:53:57.000Z,6090
2022-09-12T16:55:13.000Z,5461
2022-09-12T16:56:29.000Z,5779
2022-09-12T16:57:45.000Z,5785
2022-09-12T16:59:01.000Z,5493